sensor_id;sensor_type;location;lat;lon;timestamp;P1;durP1;ratioP1;P2;durP2;ratioP2
72109;SDS011;59983;52.010;5.420;2023-04-25T00:01:49;12.48;;;6.43;;
72109;SDS011;59983;52.010;5.420;2023-04-25T00:04:17;12.63;;;5.50;;
72109;SDS011;59983;52.010;5.420;2023-04-25T00:06:44;9.97;;;5.57;;
72109;SDS011;59983;52.010;5.420;2023-04-25T00:09:11;20.60;;;5.60;;
72109;SDS011;59983;52.010;5.420;2023-04-25T00:11:37;16.13;;;6.25;;
72109;SDS011;59983;52.010;5.420;2023-04-25T00:14:04;9.52;;;6.30;;
72109;SDS011;59983;52.010;5.420;2023-04-25T00:16:31;8.57;;;5.68;;
72109;SDS011;59983;52.010;5.420;2023-04-25T00:19:01;14.73;;;7.43;;
72109;SDS011;59983;52.010;5.420;2023-04-25T00:21:28;9.77;;;7.25;;
72109;SDS011;59983;52.010;5.420;2023-04-25T00:23:55;7.10;;;5.70;;
72109;SDS011;59983;52.010;5.420;2023-04-25T00:26:22;6.85;;;6.00;;
72109;SDS011;59983;52.010;5.420;2023-04-25T00:28:49;12.95;;;5.88;;
72109;SDS011;59983;52.010;5.420;2023-04-25T00:31:15;15.67;;;5.87;;
72109;SDS011;59983;52.010;5.420;2023-04-25T00:33:42;15.15;;;6.07;;
72109;SDS011;59983;52.010;5.420;2023-04-25T00:36:08;10.95;;;5.43;;
72109;SDS011;59983;52.010;5.420;2023-04-25T00:38:35;9.55;;;5.68;;
72109;SDS011;59983;52.010;5.420;2023-04-25T00:41:02;13.52;;;6.20;;
72109;SDS011;59983;52.010;5.420;2023-04-25T00:43:31;11.00;;;6.00;;
72109;SDS011;59983;52.010;5.420;2023-04-25T00:45:59;12.07;;;6.15;;
72109;SDS011;59983;52.010;5.420;2023-04-25T00:48:26;14.00;;;6.13;;
72109;SDS011;59983;52.010;5.420;2023-04-25T00:50:54;14.70;;;6.22;;
72109;SDS011;59983;52.010;5.420;2023-04-25T00:53:23;14.55;;;6.25;;
72109;SDS011;59983;52.010;5.420;2023-04-25T00:55:52;11.43;;;6.27;;
72109;SDS011;59983;52.010;5.420;2023-04-25T00:58:20;16.42;;;6.72;;
72109;SDS011;59983;52.010;5.420;2023-04-25T01:00:48;10.70;;;5.47;;
72109;SDS011;59983;52.010;5.420;2023-04-25T01:03:16;9.40;;;6.20;;
72109;SDS011;59983;52.010;5.420;2023-04-25T01:05:46;12.02;;;5.88;;
72109;SDS011;59983;52.010;5.420;2023-04-25T01:08:14;9.70;;;4.90;;
72109;SDS011;59983;52.010;5.420;2023-04-25T01:10:40;9.18;;;5.82;;
72109;SDS011;59983;52.010;5.420;2023-04-25T01:13:07;10.15;;;5.90;;
72109;SDS011;59983;52.010;5.420;2023-04-25T01:15:34;8.32;;;4.80;;
72109;SDS011;59983;52.010;5.420;2023-04-25T01:18:02;10.55;;;5.80;;
72109;SDS011;59983;52.010;5.420;2023-04-25T01:20:30;9.03;;;5.67;;
72109;SDS011;59983;52.010;5.420;2023-04-25T01:22:58;14.65;;;6.40;;
72109;SDS011;59983;52.010;5.420;2023-04-25T01:25:25;11.10;;;6.13;;
72109;SDS011;59983;52.010;5.420;2023-04-25T01:27:52;9.05;;;5.38;;
72109;SDS011;59983;52.010;5.420;2023-04-25T01:30:19;8.07;;;6.30;;
72109;SDS011;59983;52.010;5.420;2023-04-25T01:32:46;12.37;;;6.37;;
72109;SDS011;59983;52.010;5.420;2023-04-25T01:35:14;9.63;;;7.15;;
72109;SDS011;59983;52.010;5.420;2023-04-25T01:37:41;15.60;;;6.03;;
72109;SDS011;59983;52.010;5.420;2023-04-25T01:40:09;6.72;;;4.70;;
72109;SDS011;59983;52.010;5.420;2023-04-25T01:42:38;9.63;;;5.43;;
72109;SDS011;59983;52.010;5.420;2023-04-25T01:45:06;7.47;;;4.97;;
72109;SDS011;59983;52.010;5.420;2023-04-25T01:47:34;8.85;;;5.25;;
72109;SDS011;59983;52.010;5.420;2023-04-25T01:50:04;8.85;;;5.78;;
72109;SDS011;59983;52.010;5.420;2023-04-25T01:52:31;12.25;;;5.60;;
72109;SDS011;59983;52.010;5.420;2023-04-25T01:54:57;11.95;;;5.32;;
72109;SDS011;59983;52.010;5.420;2023-04-25T01:57:27;7.07;;;5.50;;
72109;SDS011;59983;52.010;5.420;2023-04-25T02:00:00;7.57;;;5.63;;
72109;SDS011;59983;52.010;5.420;2023-04-25T02:02:29;10.30;;;5.47;;
72109;SDS011;59983;52.010;5.420;2023-04-25T02:04:56;19.05;;;5.10;;
72109;SDS011;59983;52.010;5.420;2023-04-25T02:07:22;14.48;;;6.07;;
72109;SDS011;59983;52.010;5.420;2023-04-25T02:09:49;13.13;;;5.60;;
72109;SDS011;59983;52.010;5.420;2023-04-25T02:12:15;10.75;;;5.75;;
72109;SDS011;59983;52.010;5.420;2023-04-25T02:14:42;10.88;;;6.88;;
72109;SDS011;59983;52.010;5.420;2023-04-25T02:17:08;11.95;;;5.70;;
72109;SDS011;59983;52.010;5.420;2023-04-25T02:19:35;10.30;;;6.13;;
72109;SDS011;59983;52.010;5.420;2023-04-25T02:22:02;11.13;;;6.37;;
72109;SDS011;59983;52.010;5.420;2023-04-25T02:24:28;8.27;;;6.05;;
72109;SDS011;59983;52.010;5.420;2023-04-25T02:26:55;6.97;;;5.75;;
72109;SDS011;59983;52.010;5.420;2023-04-25T02:29:22;8.73;;;5.43;;
72109;SDS011;59983;52.010;5.420;2023-04-25T02:31:49;9.77;;;5.78;;
72109;SDS011;59983;52.010;5.420;2023-04-25T02:34:16;11.23;;;6.27;;
72109;SDS011;59983;52.010;5.420;2023-04-25T02:36:42;7.15;;;6.00;;
72109;SDS011;59983;52.010;5.420;2023-04-25T02:39:09;10.52;;;6.15;;
72109;SDS011;59983;52.010;5.420;2023-04-25T02:41:36;10.82;;;6.20;;
72109;SDS011;59983;52.010;5.420;2023-04-25T02:44:03;7.93;;;6.43;;
72109;SDS011;59983;52.010;5.420;2023-04-25T02:46:29;10.00;;;6.17;;
72109;SDS011;59983;52.010;5.420;2023-04-25T02:49:05;16.50;;;7.53;;
72109;SDS011;59983;52.010;5.420;2023-04-25T02:51:32;7.57;;;6.13;;
72109;SDS011;59983;52.010;5.420;2023-04-25T02:53:59;13.25;;;5.70;;
72109;SDS011;59983;52.010;5.420;2023-04-25T02:56:25;10.38;;;6.30;;
72109;SDS011;59983;52.010;5.420;2023-04-25T02:58:53;11.30;;;6.90;;
72109;SDS011;59983;52.010;5.420;2023-04-25T03:01:20;10.45;;;5.97;;
72109;SDS011;59983;52.010;5.420;2023-04-25T03:03:46;7.80;;;5.88;;
72109;SDS011;59983;52.010;5.420;2023-04-25T03:06:13;7.45;;;6.75;;
72109;SDS011;59983;52.010;5.420;2023-04-25T03:08:41;6.18;;;5.68;;
72109;SDS011;59983;52.010;5.420;2023-04-25T03:11:09;8.13;;;6.80;;
72109;SDS011;59983;52.010;5.420;2023-04-25T03:13:36;7.70;;;6.45;;
72109;SDS011;59983;52.010;5.420;2023-04-25T03:16:03;11.00;;;6.38;;
72109;SDS011;59983;52.010;5.420;2023-04-25T03:18:30;10.23;;;7.40;;
72109;SDS011;59983;52.010;5.420;2023-04-25T03:20:56;12.95;;;6.60;;
72109;SDS011;59983;52.010;5.420;2023-04-25T03:23:23;9.10;;;5.97;;
72109;SDS011;59983;52.010;5.420;2023-04-25T03:25:49;7.28;;;6.55;;
72109;SDS011;59983;52.010;5.420;2023-04-25T03:28:16;12.75;;;6.53;;
72109;SDS011;59983;52.010;5.420;2023-04-25T03:30:42;11.90;;;7.25;;
72109;SDS011;59983;52.010;5.420;2023-04-25T03:33:09;15.98;;;7.22;;
72109;SDS011;59983;52.010;5.420;2023-04-25T03:35:35;10.67;;;6.97;;
72109;SDS011;59983;52.010;5.420;2023-04-25T03:38:02;13.55;;;7.35;;
72109;SDS011;59983;52.010;5.420;2023-04-25T03:40:28;18.48;;;8.40;;
72109;SDS011;59983;52.010;5.420;2023-04-25T03:42:55;8.98;;;7.00;;
72109;SDS011;59983;52.010;5.420;2023-04-25T03:45:22;9.40;;;6.80;;
72109;SDS011;59983;52.010;5.420;2023-04-25T03:47:48;12.80;;;7.77;;
72109;SDS011;59983;52.010;5.420;2023-04-25T03:50:15;10.55;;;7.68;;
72109;SDS011;59983;52.010;5.420;2023-04-25T03:52:42;14.60;;;8.00;;
72109;SDS011;59983;52.010;5.420;2023-04-25T03:55:09;10.13;;;7.53;;
72109;SDS011;59983;52.010;5.420;2023-04-25T03:57:36;14.70;;;7.60;;
72109;SDS011;59983;52.010;5.420;2023-04-25T04:00:03;11.30;;;7.63;;
72109;SDS011;59983;52.010;5.420;2023-04-25T04:02:30;10.82;;;7.43;;
72109;SDS011;59983;52.010;5.420;2023-04-25T04:04:57;8.00;;;7.43;;
72109;SDS011;59983;52.010;5.420;2023-04-25T04:07:24;13.02;;;7.95;;
72109;SDS011;59983;52.010;5.420;2023-04-25T04:09:51;9.50;;;7.13;;
72109;SDS011;59983;52.010;5.420;2023-04-25T04:12:17;8.50;;;7.67;;
72109;SDS011;59983;52.010;5.420;2023-04-25T04:14:44;9.60;;;7.63;;
72109;SDS011;59983;52.010;5.420;2023-04-25T04:17:10;9.27;;;7.32;;
72109;SDS011;59983;52.010;5.420;2023-04-25T04:19:37;14.45;;;7.13;;
72109;SDS011;59983;52.010;5.420;2023-04-25T04:22:03;8.65;;;7.30;;
72109;SDS011;59983;52.010;5.420;2023-04-25T04:24:30;13.20;;;7.10;;
72109;SDS011;59983;52.010;5.420;2023-04-25T04:26:56;7.75;;;6.97;;
72109;SDS011;59983;52.010;5.420;2023-04-25T04:29:23;10.65;;;7.70;;
72109;SDS011;59983;52.010;5.420;2023-04-25T04:31:50;8.18;;;7.40;;
72109;SDS011;59983;52.010;5.420;2023-04-25T04:34:17;10.65;;;7.47;;
72109;SDS011;59983;52.010;5.420;2023-04-25T04:36:45;10.67;;;6.27;;
72109;SDS011;59983;52.010;5.420;2023-04-25T04:39:14;7.40;;;6.72;;
72109;SDS011;59983;52.010;5.420;2023-04-25T04:41:41;11.07;;;7.65;;
72109;SDS011;59983;52.010;5.420;2023-04-25T04:44:09;12.68;;;6.70;;
72109;SDS011;59983;52.010;5.420;2023-04-25T04:46:36;8.80;;;7.60;;
72109;SDS011;59983;52.010;5.420;2023-04-25T04:49:08;8.53;;;6.23;;
72109;SDS011;59983;52.010;5.420;2023-04-25T04:51:36;7.97;;;7.18;;
72109;SDS011;59983;52.010;5.420;2023-04-25T04:54:03;8.77;;;6.35;;
72109;SDS011;59983;52.010;5.420;2023-04-25T04:56:30;8.60;;;5.75;;
72109;SDS011;59983;52.010;5.420;2023-04-25T04:58:57;8.75;;;6.40;;
72109;SDS011;59983;52.010;5.420;2023-04-25T05:01:25;10.17;;;5.80;;
72109;SDS011;59983;52.010;5.420;2023-04-25T05:03:52;9.38;;;7.32;;
72109;SDS011;59983;52.010;5.420;2023-04-25T05:06:20;9.73;;;7.65;;
72109;SDS011;59983;52.010;5.420;2023-04-25T05:08:46;9.98;;;6.60;;
72109;SDS011;59983;52.010;5.420;2023-04-25T05:11:13;12.57;;;6.35;;
72109;SDS011;59983;52.010;5.420;2023-04-25T05:13:39;9.80;;;6.20;;
72109;SDS011;59983;52.010;5.420;2023-04-25T05:16:06;12.60;;;5.65;;
72109;SDS011;59983;52.010;5.420;2023-04-25T05:18:32;9.07;;;6.68;;
72109;SDS011;59983;52.010;5.420;2023-04-25T05:20:59;5.75;;;4.82;;
72109;SDS011;59983;52.010;5.420;2023-04-25T05:23:25;6.28;;;5.82;;
72109;SDS011;59983;52.010;5.420;2023-04-25T05:25:54;8.10;;;5.53;;
72109;SDS011;59983;52.010;5.420;2023-04-25T05:28:20;5.70;;;5.18;;
72109;SDS011;59983;52.010;5.420;2023-04-25T05:30:47;10.32;;;6.05;;
72109;SDS011;59983;52.010;5.420;2023-04-25T05:33:14;11.05;;;5.70;;
72109;SDS011;59983;52.010;5.420;2023-04-25T05:35:40;8.90;;;5.75;;
72109;SDS011;59983;52.010;5.420;2023-04-25T05:38:07;6.17;;;5.67;;
72109;SDS011;59983;52.010;5.420;2023-04-25T05:40:34;8.15;;;4.85;;
72109;SDS011;59983;52.010;5.420;2023-04-25T05:43:00;9.02;;;4.97;;
72109;SDS011;59983;52.010;5.420;2023-04-25T05:45:27;6.70;;;5.85;;
72109;SDS011;59983;52.010;5.420;2023-04-25T05:47:53;7.22;;;5.80;;
72109;SDS011;59983;52.010;5.420;2023-04-25T05:50:20;11.07;;;5.27;;
72109;SDS011;59983;52.010;5.420;2023-04-25T05:52:47;9.70;;;5.40;;
72109;SDS011;59983;52.010;5.420;2023-04-25T05:55:13;6.53;;;5.45;;
72109;SDS011;59983;52.010;5.420;2023-04-25T05:57:41;5.22;;;4.75;;
72109;SDS011;59983;52.010;5.420;2023-04-25T06:00:08;5.72;;;4.78;;
72109;SDS011;59983;52.010;5.420;2023-04-25T06:02:35;6.33;;;5.00;;
72109;SDS011;59983;52.010;5.420;2023-04-25T06:05:02;6.28;;;5.40;;
72109;SDS011;59983;52.010;5.420;2023-04-25T06:07:30;6.43;;;5.43;;
72109;SDS011;59983;52.010;5.420;2023-04-25T06:09:57;7.90;;;5.13;;
72109;SDS011;59983;52.010;5.420;2023-04-25T06:12:23;9.05;;;5.00;;
72109;SDS011;59983;52.010;5.420;2023-04-25T06:14:50;4.87;;;4.33;;
72109;SDS011;59983;52.010;5.420;2023-04-25T06:17:16;9.00;;;4.30;;
72109;SDS011;59983;52.010;5.420;2023-04-25T06:19:42;6.50;;;4.60;;
72109;SDS011;59983;52.010;5.420;2023-04-25T06:22:09;6.60;;;4.18;;
72109;SDS011;59983;52.010;5.420;2023-04-25T06:24:36;5.90;;;4.72;;
72109;SDS011;59983;52.010;5.420;2023-04-25T06:27:02;7.70;;;4.27;;
72109;SDS011;59983;52.010;5.420;2023-04-25T06:29:29;5.00;;;4.18;;
72109;SDS011;59983;52.010;5.420;2023-04-25T06:31:55;7.15;;;4.38;;
72109;SDS011;59983;52.010;5.420;2023-04-25T06:34:23;12.05;;;3.90;;
72109;SDS011;59983;52.010;5.420;2023-04-25T06:36:50;11.20;;;4.45;;
72109;SDS011;59983;52.010;5.420;2023-04-25T06:39:16;6.43;;;3.90;;
72109;SDS011;59983;52.010;5.420;2023-04-25T06:41:43;7.03;;;4.55;;
72109;SDS011;59983;52.010;5.420;2023-04-25T06:44:09;11.00;;;4.32;;
72109;SDS011;59983;52.010;5.420;2023-04-25T06:46:36;8.70;;;4.35;;
72109;SDS011;59983;52.010;5.420;2023-04-25T06:49:03;5.85;;;4.60;;
72109;SDS011;59983;52.010;5.420;2023-04-25T06:51:30;7.83;;;4.53;;
72109;SDS011;59983;52.010;5.420;2023-04-25T06:53:57;5.90;;;4.80;;
72109;SDS011;59983;52.010;5.420;2023-04-25T06:56:24;8.82;;;4.28;;
72109;SDS011;59983;52.010;5.420;2023-04-25T06:58:50;9.07;;;3.65;;
72109;SDS011;59983;52.010;5.420;2023-04-25T07:01:17;15.23;;;4.75;;
72109;SDS011;59983;52.010;5.420;2023-04-25T07:03:44;9.20;;;3.73;;
72109;SDS011;59983;52.010;5.420;2023-04-25T07:06:11;4.28;;;3.83;;
72109;SDS011;59983;52.010;5.420;2023-04-25T07:08:37;9.25;;;4.90;;
72109;SDS011;59983;52.010;5.420;2023-04-25T07:11:04;6.75;;;4.47;;
72109;SDS011;59983;52.010;5.420;2023-04-25T07:13:30;3.85;;;3.60;;
72109;SDS011;59983;52.010;5.420;2023-04-25T07:15:57;11.70;;;3.70;;
72109;SDS011;59983;52.010;5.420;2023-04-25T07:18:23;4.57;;;4.05;;
72109;SDS011;59983;52.010;5.420;2023-04-25T07:20:50;8.32;;;4.45;;
72109;SDS011;59983;52.010;5.420;2023-04-25T07:23:16;12.50;;;4.70;;
72109;SDS011;59983;52.010;5.420;2023-04-25T07:25:43;6.13;;;4.10;;
72109;SDS011;59983;52.010;5.420;2023-04-25T07:28:09;7.17;;;4.30;;
72109;SDS011;59983;52.010;5.420;2023-04-25T07:30:36;4.85;;;3.92;;
72109;SDS011;59983;52.010;5.420;2023-04-25T07:33:02;5.72;;;3.70;;
72109;SDS011;59983;52.010;5.420;2023-04-25T07:35:29;10.02;;;3.40;;
72109;SDS011;59983;52.010;5.420;2023-04-25T07:37:56;7.32;;;3.83;;
72109;SDS011;59983;52.010;5.420;2023-04-25T07:40:22;4.53;;;3.00;;
72109;SDS011;59983;52.010;5.420;2023-04-25T07:42:49;14.98;;;4.18;;
72109;SDS011;59983;52.010;5.420;2023-04-25T07:45:15;10.13;;;3.30;;
72109;SDS011;59983;52.010;5.420;2023-04-25T07:47:42;7.93;;;3.30;;
72109;SDS011;59983;52.010;5.420;2023-04-25T07:50:08;10.00;;;3.40;;
72109;SDS011;59983;52.010;5.420;2023-04-25T07:52:36;8.47;;;3.47;;
72109;SDS011;59983;52.010;5.420;2023-04-25T07:55:03;6.15;;;3.30;;
72109;SDS011;59983;52.010;5.420;2023-04-25T07:57:29;7.22;;;2.85;;
72109;SDS011;59983;52.010;5.420;2023-04-25T07:59:56;5.18;;;2.83;;
72109;SDS011;59983;52.010;5.420;2023-04-25T08:02:23;6.50;;;2.80;;
72109;SDS011;59983;52.010;5.420;2023-04-25T08:04:52;6.70;;;3.00;;
72109;SDS011;59983;52.010;5.420;2023-04-25T08:07:18;7.88;;;3.83;;
72109;SDS011;59983;52.010;5.420;2023-04-25T08:09:45;5.07;;;2.90;;
72109;SDS011;59983;52.010;5.420;2023-04-25T08:12:12;5.95;;;3.00;;
72109;SDS011;59983;52.010;5.420;2023-04-25T08:14:38;5.75;;;3.95;;
72109;SDS011;59983;52.010;5.420;2023-04-25T08:17:05;7.80;;;3.10;;
72109;SDS011;59983;52.010;5.420;2023-04-25T08:19:32;4.10;;;3.05;;
72109;SDS011;59983;52.010;5.420;2023-04-25T08:21:58;11.07;;;4.20;;
72109;SDS011;59983;52.010;5.420;2023-04-25T08:24:25;7.93;;;3.28;;
72109;SDS011;59983;52.010;5.420;2023-04-25T08:26:52;7.82;;;3.25;;
72109;SDS011;59983;52.010;5.420;2023-04-25T08:29:18;7.90;;;3.40;;
72109;SDS011;59983;52.010;5.420;2023-04-25T08:31:45;6.72;;;2.88;;
72109;SDS011;59983;52.010;5.420;2023-04-25T08:34:12;7.80;;;3.60;;
72109;SDS011;59983;52.010;5.420;2023-04-25T08:36:38;3.75;;;2.90;;
72109;SDS011;59983;52.010;5.420;2023-04-25T08:39:05;6.65;;;3.50;;
72109;SDS011;59983;52.010;5.420;2023-04-25T08:41:33;7.03;;;3.17;;
72109;SDS011;59983;52.010;5.420;2023-04-25T08:43:59;3.55;;;2.80;;
72109;SDS011;59983;52.010;5.420;2023-04-25T08:46:28;5.35;;;3.00;;
72109;SDS011;59983;52.010;5.420;2023-04-25T08:49:00;8.00;;;3.17;;
72109;SDS011;59983;52.010;5.420;2023-04-25T08:51:27;4.20;;;3.25;;
72109;SDS011;59983;52.010;5.420;2023-04-25T08:54:01;7.90;;;3.10;;
72109;SDS011;59983;52.010;5.420;2023-04-25T08:56:57;3.92;;;2.80;;
72109;SDS011;59983;52.010;5.420;2023-04-25T08:59:31;2.40;;;2.20;;
72109;SDS011;59983;52.010;5.420;2023-04-25T09:01:58;5.88;;;2.70;;
72109;SDS011;59983;52.010;5.420;2023-04-25T09:04:26;7.53;;;5.10;;
72109;SDS011;59983;52.010;5.420;2023-04-25T09:06:53;3.70;;;2.53;;
72109;SDS011;59983;52.010;5.420;2023-04-25T09:09:19;3.30;;;2.28;;
72109;SDS011;59983;52.010;5.420;2023-04-25T09:11:46;2.45;;;2.15;;
72109;SDS011;59983;52.010;5.420;2023-04-25T09:14:20;2.70;;;2.50;;
72109;SDS011;59983;52.010;5.420;2023-04-25T09:16:58;3.85;;;2.90;;
72109;SDS011;59983;52.010;5.420;2023-04-25T09:22:06;9.88;;;3.03;;
72109;SDS011;59983;52.010;5.420;2023-04-25T09:27:12;5.00;;;2.78;;
72109;SDS011;59983;52.010;5.420;2023-04-25T09:29:44;5.53;;;3.40;;
72109;SDS011;59983;52.010;5.420;2023-04-25T09:32:15;4.10;;;3.27;;
72109;SDS011;59983;52.010;5.420;2023-04-25T09:34:47;6.57;;;3.50;;
72109;SDS011;59983;52.010;5.420;2023-04-25T09:37:19;3.20;;;3.00;;
72109;SDS011;59983;52.010;5.420;2023-04-25T09:39:50;3.15;;;2.40;;
72109;SDS011;59983;52.010;5.420;2023-04-25T09:42:25;4.40;;;2.85;;
72109;SDS011;59983;52.010;5.420;2023-04-25T09:44:53;7.57;;;2.70;;
72109;SDS011;59983;52.010;5.420;2023-04-25T09:47:22;2.80;;;2.60;;
72109;SDS011;59983;52.010;5.420;2023-04-25T09:49:51;7.10;;;3.20;;
72109;SDS011;59983;52.010;5.420;2023-04-25T09:52:19;3.72;;;2.30;;
72109;SDS011;59983;52.010;5.420;2023-04-25T09:54:51;3.00;;;2.40;;
72109;SDS011;59983;52.010;5.420;2023-04-25T09:57:19;3.93;;;2.87;;
72109;SDS011;59983;52.010;5.420;2023-04-25T09:59:50;4.65;;;2.30;;
72109;SDS011;59983;52.010;5.420;2023-04-25T10:02:19;2.60;;;2.38;;
72109;SDS011;59983;52.010;5.420;2023-04-25T10:04:47;5.50;;;2.40;;
72109;SDS011;59983;52.010;5.420;2023-04-25T10:07:23;3.58;;;2.10;;
72109;SDS011;59983;52.010;5.420;2023-04-25T10:09:59;4.13;;;2.13;;
72109;SDS011;59983;52.010;5.420;2023-04-25T10:12:30;2.67;;;2.08;;
72109;SDS011;59983;52.010;5.420;2023-04-25T10:14:59;4.85;;;2.72;;
72109;SDS011;59983;52.010;5.420;2023-04-25T10:17:27;3.63;;;3.15;;
72109;SDS011;59983;52.010;5.420;2023-04-25T10:19:56;5.93;;;3.10;;
72109;SDS011;59983;52.010;5.420;2023-04-25T10:22:31;2.90;;;2.70;;
72109;SDS011;59983;52.010;5.420;2023-04-25T10:25:00;2.78;;;2.40;;
72109;SDS011;59983;52.010;5.420;2023-04-25T10:27:30;5.03;;;2.88;;
72109;SDS011;59983;52.010;5.420;2023-04-25T10:30:01;3.55;;;2.40;;
72109;SDS011;59983;52.010;5.420;2023-04-25T10:32:32;3.88;;;2.28;;
72109;SDS011;59983;52.010;5.420;2023-04-25T10:35:09;4.33;;;2.33;;
72109;SDS011;59983;52.010;5.420;2023-04-25T10:37:56;3.65;;;2.47;;
72109;SDS011;59983;52.010;5.420;2023-04-25T10:40:32;6.72;;;2.53;;
72109;SDS011;59983;52.010;5.420;2023-04-25T10:45:59;3.90;;;2.35;;
72109;SDS011;59983;52.010;5.420;2023-04-25T10:48:30;3.57;;;2.50;;
72109;SDS011;59983;52.010;5.420;2023-04-25T10:51:10;6.35;;;2.67;;
72109;SDS011;59983;52.010;5.420;2023-04-25T10:53:37;6.72;;;2.35;;
72109;SDS011;59983;52.010;5.420;2023-04-25T10:56:38;2.53;;;2.17;;
72109;SDS011;59983;52.010;5.420;2023-04-25T11:01:54;2.40;;;2.00;;
72109;SDS011;59983;52.010;5.420;2023-04-25T11:04:22;3.67;;;2.53;;
72109;SDS011;59983;52.010;5.420;2023-04-25T11:07:03;5.03;;;2.20;;
72109;SDS011;59983;52.010;5.420;2023-04-25T11:09:34;5.22;;;2.17;;
72109;SDS011;59983;52.010;5.420;2023-04-25T11:12:09;2.78;;;2.40;;
72109;SDS011;59983;52.010;5.420;2023-04-25T11:14:38;2.80;;;2.30;;
72109;SDS011;59983;52.010;5.420;2023-04-25T11:17:05;2.97;;;1.98;;
72109;SDS011;59983;52.010;5.420;2023-04-25T11:19:32;3.50;;;2.10;;
72109;SDS011;59983;52.010;5.420;2023-04-25T11:21:59;5.72;;;2.42;;
72109;SDS011;59983;52.010;5.420;2023-04-25T11:24:27;5.93;;;2.70;;
72109;SDS011;59983;52.010;5.420;2023-04-25T11:26:55;4.07;;;2.70;;
72109;SDS011;59983;52.010;5.420;2023-04-25T11:29:27;4.22;;;2.70;;
72109;SDS011;59983;52.010;5.420;2023-04-25T11:31:55;4.03;;;2.42;;
72109;SDS011;59983;52.010;5.420;2023-04-25T11:34:24;6.95;;;2.67;;
72109;SDS011;59983;52.010;5.420;2023-04-25T11:36:52;3.10;;;2.50;;
72109;SDS011;59983;52.010;5.420;2023-04-25T11:39:19;5.73;;;2.23;;
72109;SDS011;59983;52.010;5.420;2023-04-25T11:41:46;3.70;;;2.28;;
72109;SDS011;59983;52.010;5.420;2023-04-25T11:44:17;3.63;;;2.30;;
72109;SDS011;59983;52.010;5.420;2023-04-25T11:46:44;2.40;;;2.20;;
72109;SDS011;59983;52.010;5.420;2023-04-25T11:49:11;2.55;;;2.35;;
72109;SDS011;59983;52.010;5.420;2023-04-25T11:51:39;3.07;;;2.73;;
72109;SDS011;59983;52.010;5.420;2023-04-25T11:54:09;3.33;;;2.15;;
72109;SDS011;59983;52.010;5.420;2023-04-25T11:56:36;4.38;;;2.55;;
72109;SDS011;59983;52.010;5.420;2023-04-25T11:59:03;3.20;;;2.88;;
72109;SDS011;59983;52.010;5.420;2023-04-25T12:01:33;2.20;;;2.00;;
72109;SDS011;59983;52.010;5.420;2023-04-25T12:04:11;3.33;;;2.03;;
72109;SDS011;59983;52.010;5.420;2023-04-25T12:06:44;3.58;;;2.10;;
72109;SDS011;59983;52.010;5.420;2023-04-25T12:09:15;5.22;;;2.42;;
72109;SDS011;59983;52.010;5.420;2023-04-25T12:11:45;4.18;;;2.28;;
72109;SDS011;59983;52.010;5.420;2023-04-25T12:14:23;3.83;;;2.30;;
72109;SDS011;59983;52.010;5.420;2023-04-25T12:16:54;2.77;;;2.10;;
72109;SDS011;59983;52.010;5.420;2023-04-25T12:19:23;2.50;;;2.13;;
72109;SDS011;59983;52.010;5.420;2023-04-25T12:21:50;3.45;;;2.75;;
72109;SDS011;59983;52.010;5.420;2023-04-25T12:24:21;3.17;;;2.10;;
72109;SDS011;59983;52.010;5.420;2023-04-25T12:26:53;3.83;;;2.10;;
72109;SDS011;59983;52.010;5.420;2023-04-25T12:29:21;2.77;;;2.07;;
72109;SDS011;59983;52.010;5.420;2023-04-25T12:31:56;4.10;;;2.20;;
72109;SDS011;59983;52.010;5.420;2023-04-25T12:34:24;3.50;;;2.00;;
72109;SDS011;59983;52.010;5.420;2023-04-25T12:36:51;3.25;;;2.17;;
72109;SDS011;59983;52.010;5.420;2023-04-25T12:39:22;2.13;;;2.03;;
72109;SDS011;59983;52.010;5.420;2023-04-25T12:41:50;4.90;;;2.50;;
72109;SDS011;59983;52.010;5.420;2023-04-25T12:44:20;2.92;;;2.15;;
72109;SDS011;59983;52.010;5.420;2023-04-25T12:46:47;2.83;;;2.05;;
72109;SDS011;59983;52.010;5.420;2023-04-25T12:49:14;3.60;;;2.10;;
72109;SDS011;59983;52.010;5.420;2023-04-25T12:51:44;2.78;;;2.00;;
72109;SDS011;59983;52.010;5.420;2023-04-25T12:54:11;2.27;;;1.87;;
72109;SDS011;59983;52.010;5.420;2023-04-25T12:56:37;5.03;;;1.80;;
72109;SDS011;59983;52.010;5.420;2023-04-25T12:59:04;2.53;;;1.90;;
72109;SDS011;59983;52.010;5.420;2023-04-25T13:01:31;2.67;;;1.80;;
72109;SDS011;59983;52.010;5.420;2023-04-25T13:04:01;2.20;;;2.00;;
72109;SDS011;59983;52.010;5.420;2023-04-25T13:06:28;3.17;;;1.77;;
72109;SDS011;59983;52.010;5.420;2023-04-25T13:08:56;2.25;;;2.05;;
72109;SDS011;59983;52.010;5.420;2023-04-25T13:11:23;2.03;;;1.80;;
72109;SDS011;59983;52.010;5.420;2023-04-25T13:13:49;2.17;;;1.52;;
72109;SDS011;59983;52.010;5.420;2023-04-25T13:16:16;2.95;;;1.70;;
72109;SDS011;59983;52.010;5.420;2023-04-25T13:18:43;1.83;;;1.60;;
72109;SDS011;59983;52.010;5.420;2023-04-25T13:21:10;2.78;;;1.70;;
72109;SDS011;59983;52.010;5.420;2023-04-25T13:23:37;3.40;;;1.50;;
72109;SDS011;59983;52.010;5.420;2023-04-25T13:26:04;1.98;;;1.85;;
72109;SDS011;59983;52.010;5.420;2023-04-25T13:28:31;1.70;;;1.60;;
72109;SDS011;59983;52.010;5.420;2023-04-25T13:30:58;3.30;;;2.00;;
72109;SDS011;59983;52.010;5.420;2023-04-25T13:33:25;2.92;;;2.00;;
72109;SDS011;59983;52.010;5.420;2023-04-25T13:35:52;3.58;;;1.98;;
72109;SDS011;59983;52.010;5.420;2023-04-25T13:38:23;3.17;;;2.25;;
72109;SDS011;59983;52.010;5.420;2023-04-25T13:40:52;3.63;;;2.28;;
72109;SDS011;59983;52.010;5.420;2023-04-25T13:43:19;5.90;;;2.50;;
72109;SDS011;59983;52.010;5.420;2023-04-25T13:45:48;6.97;;;2.30;;
72109;SDS011;59983;52.010;5.420;2023-04-25T13:48:15;2.95;;;2.22;;
72109;SDS011;59983;52.010;5.420;2023-04-25T13:50:42;6.82;;;2.40;;
72109;SDS011;59983;52.010;5.420;2023-04-25T13:53:09;2.78;;;2.42;;
72109;SDS011;59983;52.010;5.420;2023-04-25T13:55:35;3.87;;;2.20;;
72109;SDS011;59983;52.010;5.420;2023-04-25T13:58:03;4.55;;;2.53;;
72109;SDS011;59983;52.010;5.420;2023-04-25T14:00:37;5.10;;;2.40;;
72109;SDS011;59983;52.010;5.420;2023-04-25T14:03:05;2.90;;;2.47;;
72109;SDS011;59983;52.010;5.420;2023-04-25T14:05:35;3.78;;;2.05;;
72109;SDS011;59983;52.010;5.420;2023-04-25T14:08:06;5.10;;;2.13;;
72109;SDS011;59983;52.010;5.420;2023-04-25T14:10:34;4.43;;;2.10;;
72109;SDS011;59983;52.010;5.420;2023-04-25T14:13:02;4.88;;;1.75;;
72109;SDS011;59983;52.010;5.420;2023-04-25T14:15:33;2.00;;;1.90;;
72109;SDS011;59983;52.010;5.420;2023-04-25T14:18:00;3.03;;;2.10;;
72109;SDS011;59983;52.010;5.420;2023-04-25T14:20:27;2.30;;;2.10;;
72109;SDS011;59983;52.010;5.420;2023-04-25T14:22:54;5.07;;;2.40;;
72109;SDS011;59983;52.010;5.420;2023-04-25T14:25:23;4.22;;;2.85;;
72109;SDS011;59983;52.010;5.420;2023-04-25T14:27:50;5.68;;;2.28;;
72109;SDS011;59983;52.010;5.420;2023-04-25T14:30:18;3.30;;;2.42;;
72109;SDS011;59983;52.010;5.420;2023-04-25T14:32:45;4.43;;;3.10;;
72109;SDS011;59983;52.010;5.420;2023-04-25T14:35:12;4.93;;;2.80;;
72109;SDS011;59983;52.010;5.420;2023-04-25T14:37:39;4.15;;;3.00;;
72109;SDS011;59983;52.010;5.420;2023-04-25T14:40:06;4.45;;;2.70;;
72109;SDS011;59983;52.010;5.420;2023-04-25T14:42:38;7.70;;;2.95;;
72109;SDS011;59983;52.010;5.420;2023-04-25T14:45:06;3.73;;;2.47;;
72109;SDS011;59983;52.010;5.420;2023-04-25T14:47:34;2.97;;;2.50;;
72109;SDS011;59983;52.010;5.420;2023-04-25T14:50:02;3.90;;;2.80;;
72109;SDS011;59983;52.010;5.420;2023-04-25T14:52:29;3.42;;;2.60;;
72109;SDS011;59983;52.010;5.420;2023-04-25T14:54:55;3.65;;;2.75;;
72109;SDS011;59983;52.010;5.420;2023-04-25T14:57:22;7.07;;;3.00;;
72109;SDS011;59983;52.010;5.420;2023-04-25T14:59:48;3.58;;;2.78;;
72109;SDS011;59983;52.010;5.420;2023-04-25T15:02:15;3.92;;;2.53;;